Pagina principale
METAR-TAF:

METAR-TAF

Aeroporti :

Aeroporto di Perugia

Perugia, Italia

latitudine: 43-05N, longitudine: 012-30E, altezza: 208 m

Osservazione

Il bollettino è stato emesso 23 minuti fa, alle 16:50 UTC
Vento 5 kt da sud/sud-est, variando fra est/sud-est e sud
Temperature 19°C
Umidità 78%
Pressione 1002 hPa
Visibilità 10 km o più
Nubi sparse ad un'altezza di 4000 ft
pioggia debole, rovesci nelle vicinanze

METAR: LIRZ 051650Z 16005KT 120V190 9999 -RA VCSH SCT040 19/15 Q1002

Ora: 19:13 (17:13 UTC)

Previsione

Il bollettino è stato emesso 6 ore e 13 minuti fa, alle 11:00 UTC
Previsione valida dal 05 alle 12 UTC al 06 alle 12 UTC
Vento 10 kt da sud/sud-ovest
Visibilità 10 km o più
Nubi sparse ad un'altezza di 3000 ft
Evoluzione graduale
dal 05 alle 16 UTC al 05 alle 18 UTC
Vento 4 kt da direzioni variabili

TAF: LIRZ 051100Z 0512/0612 20010KT 9999 SCT030 BECMG 0516/0518 VRB04KT

Osservazioni e previsioni meteorologiche di più di 4000 aeroporti (messaggi METAR e TAF).

Le stazioni disponibili sono rappresentate dai dischi gialli e rossi sulla carta.

Puntare il mouse per vedere il nome della stazione.

Clicca sopra per visualizzare le osservazioni e previsioni meteorologiche.

Per cambiare la mappa : fare clic sui pulsanti verdi con una croce nera per ingrandire, il pulsante verde con un trattino per diminuire, o sulla freccia verde per le mappe adiacenti.


METAR-TAF: